Main page
METAR-TAF:

METAR-TAF

Airports :

Brisbane Airport

Brisbane, Australia

latitude: 27-23S, longitude: 153-06E, elevation: 4 m

Current weather observation

The report was made 27 minutes ago, at 23:00 UTC
Wind 7 kt from the East
Temperature 28°C
Humidity 62%
Pressure 1017 hPa
Visibility 10 km or more
Scattered clouds at a height of 2700 ft

METAR: YBBN 212300Z 09007KT 9999 SCT027 28/20 Q1017

Time: 09:27 (23:27 UTC)

Forecast

The report was made 6 hours and 15 minutes ago, at 17:12 UTC
Forecast valid from 21 at 18 UTC to 22 at 24 UTC
Wind 7 kt from the East/Northeast
Visibility 10 km or more
Scattered clouds at a height of 2200 ft
From 22 at 0200 UTC
Wind 12 kt from the Northeast
Visibility 10 km or more
Few clouds at a height of 4000 ft
From 22 at 0900 UTC
Wind 8 kt from the North/Northeast
Visibility 10 km or more
Scattered clouds at a height of 2500 ft

TAF: YBBN 211712Z 2118/2224 07007KT 9999 SCT022 FM220200 05012KT 9999 FEW040 FM220900 02008KT 9999 SCT025

Weather observations and forecasts of more than 4000 airports (METAR and TAF reports).

The available stations are represented by yellow and red dots on the map.

Hover mouse over dot to see the name of the station.

Then click to see weather observations and forecasts.

To change the map : click on the green buttons with a black cross to zoom in, on the green button with a dash to zoom out, or on the green arrows for adjacent maps.


METAR-TAF: